Terminal Aerodrome Forecast
Issued by NWS

Home | Current Version | Previous Version | Text Only | Print | Product List | Glossary On
Versions: 1 2 3 4 5 6 7 8 9 10 11 12 13 14 15 16 17
000
FTUS46 KSTO 260500
TAFSMF
TAF
KSMF 260520Z 2606/2706 32004KT P6SM SKC
     FM261300 00000KT 5SM BR FEW250
      TEMPO 2614/2618 2SM BR FEW250
     FM261800 VRB04KT P6SM SCT250=

USA.gov is the U.S. government's official web portal to all federal, state and local government web resources and services.